Time;durP1;ratioP1;P1;durP2;ratioP2;P2;SDS_P1;SDS_P2;PMS_P1;PMS_P2;Temp;Humidity;BMP_temperature;BMP_pressure;BME280_temperature;BME280_humidity;BME280_pressure;Samples;Min_cycle;Max_cycle;Signal;HPM_P1;HPM_P2
2024/01/28 00:00:42;;;;;;;;;;;;;;;16.72;40.37;101709.66;5032288;28;980;-57
2024/01/28 00:03:08;;;;;;;;;;;;;;;16.24;41.25;101711.91;5019719;28;1262;-57
2024/01/28 00:05:34;;;;;;;;;;;;;;;17.89;37.98;101714.16;5019289;28;1631;-57
2024/01/28 00:07:59;;;;;;;;;;;;;;;16.89;39.80;101731.63;5019200;28;1175;-57
2024/01/28 00:10:25;;;;;;;;;;;;;;;16.24;41.31;101733.84;5032655;28;1130;-58
2024/01/28 00:12:51;;;;;;;;;;;;;;;17.81;38.26;101747.63;5031804;28;1985;-58
2024/01/28 00:15:17;;;;;;;;;;;;;;;16.53;40.67;101755.75;5032590;28;1188;-58
2024/01/28 00:17:42;;;;;;;;;;;;;;;16.11;41.31;101751.47;5019335;28;1207;-58
2024/01/28 00:20:09;;;;;;;;;;;;;;;17.34;39.08;101751.75;5018758;28;1135;-57
2024/01/28 00:22:34;;;;;;;;;;;;;;;16.98;39.81;101749.34;5018918;28;1043;-58
2024/01/28 00:25:00;;;;;;;;;;;;;;;16.29;41.14;101744.94;5019032;28;1063;-58
2024/01/28 00:27:25;;;;;;;;;;;;;;;16.06;41.67;101743.13;5025678;28;1059;-57
2024/01/28 00:29:51;;;;;;;;;;;;;;;17.52;38.66;101747.88;5025099;28;1083;-57
2024/01/28 00:32:16;;;;;;;;;;;;;;;16.49;40.90;101749.91;5031789;28;1909;-58
2024/01/28 00:34:42;;;;;;;;;;;;;;;17.37;39.23;101737.50;5019184;28;1095;-57
2024/01/28 00:37:08;;;;;;;;;;;;;;;17.08;39.18;101735.75;5031545;28;1061;-59
2024/01/28 00:39:35;;;;;;;;;;;;;;;16.40;40.73;101740.44;5031836;28;1218;-58
2024/01/28 00:42:01;;;;;;;;;;;;;;;16.06;41.41;101733.00;5021549;28;1294;-57
2024/01/28 00:44:27;;;;;;;;;;;;;;;16.95;40.13;101744.34;5018072;28;1543;-58
2024/01/28 00:46:55;;;;;;;;;;;;;;;16.61;40.47;101744.38;5018474;28;1098;-59
2024/01/28 00:49:23;;;;;;;;;;;;;;;17.02;39.63;101758.72;5018019;28;1112;-58
2024/01/28 00:51:49;;;;;;;;;;;;;;;17.89;37.77;101753.53;5017894;28;1901;-59
2024/01/28 00:54:15;;;;;;;;;;;;;;;16.56;40.44;101744.28;5031291;28;1156;-58
2024/01/28 00:56:40;;;;;;;;;;;;;;;16.28;40.99;101750.66;5024683;28;1083;-57
2024/01/28 00:59:06;;;;;;;;;;;;;;;17.73;38.45;101758.00;5024797;28;1110;-58
2024/01/28 01:01:31;;;;;;;;;;;;;;;16.57;40.54;101748.69;5026565;28;1080;-57
2024/01/28 01:03:57;;;;;;;;;;;;;;;16.18;41.42;101749.41;5018433;28;1040;-58
2024/01/28 01:06:23;;;;;;;;;;;;;;;17.62;38.57;101742.47;5031064;28;1084;-57
2024/01/28 01:08:48;;;;;;;;;;;;;;;16.45;40.70;101750.69;5017281;28;1116;-58
2024/01/28 01:11:14;;;;;;;;;;;;;;;16.11;41.58;101750.66;5018115;28;1199;-58
2024/01/28 01:13:39;;;;;;;;;;;;;;;17.31;38.68;101744.84;5024653;28;1965;-58
2024/01/28 01:16:05;;;;;;;;;;;;;;;16.32;40.98;101749.09;5024248;28;1096;-58
2024/01/28 01:18:30;;;;;;;;;;;;;;;16.34;41.24;101747.78;5026517;28;1059;-58
2024/01/28 01:20:56;;;;;;;;;;;;;;;17.24;39.02;101746.97;5017812;28;1183;-57
2024/01/28 01:23:22;;;;;;;;;;;;;;;16.18;41.11;101723.88;5018363;28;1151;-57
2024/01/28 01:25:47;;;;;;;;;;;;;;;16.92;39.88;101736.63;5030905;28;1219;-57
2024/01/28 01:28:12;;;;;;;;;;;;;;;16.90;39.49;101741.53;5017832;28;1132;-57
2024/01/28 01:30:39;;;;;;;;;;;;;;;16.22;41.33;101747.81;5017360;28;1052;-47
2024/01/28 01:33:04;;;;;;;;;;;;;;;17.73;38.39;101738.75;5029892;28;1970;-51
2024/01/28 01:35:30;;;;;;;;;;;;;;;16.60;40.28;101753.66;5018791;28;1059;-59
2024/01/28 01:37:55;;;;;;;;;;;;;;;16.12;41.47;101735.81;5023393;28;1318;-57
2024/01/28 01:40:21;;;;;;;;;;;;;;;17.17;39.47;101747.13;5022725;28;1067;-59
2024/01/28 01:42:47;;;;;;;;;;;;;;;16.27;41.03;101735.28;5027724;28;988;-60
2024/01/28 01:45:12;;;;;;;;;;;;;;;15.95;41.76;101733.91;5017908;28;1040;-58
2024/01/28 01:47:38;;;;;;;;;;;;;;;16.82;40.16;101737.28;5017396;28;1505;-61
2024/01/28 01:50:04;;;;;;;;;;;;;;;16.43;40.66;101737.19;5025365;28;1235;-60
2024/01/28 01:52:30;;;;;;;;;;;;;;;17.76;38.27;101746.47;5029195;28;1901;-59
2024/01/28 01:54:55;;;;;;;;;;;;;;;18.25;36.92;101739.31;5016735;28;1119;-57
2024/01/28 01:57:21;;;;;;;;;;;;;;;16.92;39.77;101748.44;5017067;28;1112;-59
2024/01/28 01:59:46;;;;;;;;;;;;;;;16.46;40.64;101741.38;5017219;28;1227;-57
2024/01/28 02:02:12;;;;;;;;;;;;;;;16.14;41.18;101750.16;5015556;28;1056;-59
2024/01/28 02:04:38;;;;;;;;;;;;;;;17.20;39.40;101751.31;5017201;28;1003;-60
2024/01/28 02:07:04;;;;;;;;;;;;;;;16.52;40.44;101754.09;5017113;28;1447;-56
2024/01/28 02:09:29;;;;;;;;;;;;;;;16.11;41.26;101762.44;5016856;28;1012;-56
2024/01/28 02:11:55;;;;;;;;;;;;;;;16.88;39.85;101754.66;5016520;28;1963;-59
2024/01/28 02:14:20;;;;;;;;;;;;;;;16.77;40.24;101768.25;5029373;28;1063;-56
2024/01/28 02:16:48;;;;;;;;;;;;;;;16.17;41.12;101768.84;5016810;28;1064;-58
2024/01/28 02:19:16;;;;;;;;;;;;;;;17.27;39.07;101758.25;5015715;28;1107;-57
2024/01/28 02:21:42;;;;;;;;;;;;;;;16.51;40.45;101772.47;5029257;28;1059;-59
2024/01/28 02:24:07;;;;;;;;;;;;;;;17.37;39.10;101768.56;5023594;28;1122;-58
2024/01/28 02:26:33;;;;;;;;;;;;;;;17.73;38.11;101759.94;5023856;28;1007;-59
2024/01/28 02:28:58;;;;;;;;;;;;;;;16.62;40.23;101773.50;5021905;28;1060;-54
2024/01/28 02:31:24;;;;;;;;;;;;;;;16.16;41.23;101772.66;5036226;28;1897;-55
2024/01/28 02:33:49;;;;;;;;;;;;;;;16.43;41.04;101775.63;5017424;28;1072;-58
2024/01/28 02:36:15;;;;;;;;;;;;;;;17.88;37.89;101779.38;5016494;28;1075;-59
2024/01/28 02:38:40;;;;;;;;;;;;;;;16.56;40.32;101782.72;5016171;28;1160;-57
2024/01/28 02:41:06;;;;;;;;;;;;;;;16.17;41.25;101771.59;5016435;28;1008;-59
2024/01/28 02:43:31;;;;;;;;;;;;;;;16.14;41.27;101774.84;5030021;28;1143;-60
2024/01/28 02:45:57;;;;;;;;;;;;;;;17.73;38.09;101788.28;5016790;28;1163;-57
2024/01/28 02:48:22;;;;;;;;;;;;;;;16.49;40.49;101784.78;5029341;28;1122;-54
2024/01/28 02:50:48;;;;;;;;;;;;;;;16.10;41.55;101792.88;5016063;28;1308;-59
2024/01/28 02:53:14;;;;;;;;;;;;;;;17.47;38.66;101791.78;5029445;28;1979;-60
2024/01/28 02:55:40;;;;;;;;;;;;;;;16.77;40.06;101794.88;5023606;28;1119;-59
2024/01/28 02:58:05;;;;;;;;;;;;;;;16.39;41.09;101800.00;5016895;28;1060;-56
2024/01/28 03:00:31;;;;;;;;;;;;;;;17.50;38.62;101788.53;5016372;28;1160;-59
2024/01/28 03:02:56;;;;;;;;;;;;;;;16.41;41.01;101797.84;5029064;28;1118;-58
2024/01/28 03:05:22;;;;;;;;;;;;;;;16.03;41.61;101807.59;5027813;28;1052;-58
2024/01/28 03:07:47;;;;;;;;;;;;;;;16.96;39.80;101805.63;5017889;28;1071;-58
2024/01/28 03:10:13;;;;;;;;;;;;;;;16.71;39.87;101810.44;5015980;28;1094;-57
2024/01/28 03:12:38;;;;;;;;;;;;;;;16.12;41.51;101810.75;5029209;28;1983;-57
2024/01/28 03:15:04;;;;;;;;;;;;;;;16.40;40.94;101818.13;5027761;28;912;-57
2024/01/28 03:17:30;;;;;;;;;;;;;;;16.97;39.46;101808.13;5030640;28;1135;-57
2024/01/28 03:19:55;;;;;;;;;;;;;;;16.13;41.45;101808.84;5016252;28;1130;-58
2024/01/28 03:22:21;;;;;;;;;;;;;;;17.54;38.42;101814.44;5026075;28;1183;-58
2024/01/28 03:24:47;;;;;;;;;;;;;;;16.68;40.31;101826.59;5024043;28;1296;-57
2024/01/28 03:27:13;;;;;;;;;;;;;;;16.13;41.14;101825.31;5023924;28;1164;-57
2024/01/28 03:29:38;;;;;;;;;;;;;;;16.87;40.07;101835.41;5033880;28;1591;-58
2024/01/28 03:32:04;;;;;;;;;;;;;;;16.77;40.10;101825.94;5038892;28;1971;-58
2024/01/28 03:34:29;;;;;;;;;;;;;;;16.05;41.48;101837.50;5025398;28;974;-58
2024/01/28 03:36:55;;;;;;;;;;;;;;;15.85;41.52;101841.50;5025574;28;1524;-58
2024/01/28 03:39:20;;;;;;;;;;;;;;;17.22;39.18;101859.06;5026809;28;1100;-58
2024/01/28 03:41:46;;;;;;;;;;;;;;;16.82;39.89;101849.06;5021128;28;1052;-58
2024/01/28 03:44:12;;;;;;;;;;;;;;;16.10;41.54;101865.03;5027459;28;1155;-59
2024/01/28 03:46:38;;;;;;;;;;;;;;;17.50;38.56;101871.88;5023891;28;1150;-59
2024/01/28 03:49:04;;;;;;;;;;;;;;;16.82;39.68;101873.78;5026502;28;1201;-58
2024/01/28 03:51:30;;;;;;;;;;;;;;;16.20;41.10;101878.13;5023912;28;1910;-59
2024/01/28 03:53:57;;;;;;;;;;;;;;;16.84;39.95;101880.69;5029422;28;1294;-58
2024/01/28 03:56:23;;;;;;;;;;;;;;;17.12;39.26;101889.16;5035320;28;1079;-58
2024/01/28 03:58:49;;;;;;;;;;;;;;;16.29;41.02;101884.91;5019556;28;1135;-62
2024/01/28 04:01:14;;;;;;;;;;;;;;;16.96;39.61;101886.16;5031878;28;1435;-60
2024/01/28 04:03:40;;;;;;;;;;;;;;;16.70;40.08;101896.63;5030941;28;1095;-58
2024/01/28 04:06:05;;;;;;;;;;;;;;;16.26;41.23;101896.38;5021927;28;1124;-57
2024/01/28 04:08:31;;;;;;;;;;;;;;;16.65;40.44;101907.56;5030802;28;1079;-56
2024/01/28 04:10:56;;;;;;;;;;;;;;;18.11;37.67;101910.38;5025587;28;1000;-56
2024/01/28 04:13:22;;;;;;;;;;;;;;;16.75;40.11;101891.25;5027572;28;1894;-56
2024/01/28 04:15:47;;;;;;;;;;;;;;;16.38;40.83;101910.91;5027889;28;1155;-56
2024/01/28 04:18:13;;;;;;;;;;;;;;;18.06;37.48;101921.34;5018791;28;1222;-56
2024/01/28 04:20:38;;;;;;;;;;;;;;;16.85;39.79;101918.06;5030881;28;940;-56
2024/01/28 04:23:04;;;;;;;;;;;;;;;16.48;40.78;101915.75;5018929;28;1079;-56
2024/01/28 04:25:29;;;;;;;;;;;;;;;18.22;37.39;101925.13;5019157;28;1055;-52
2024/01/28 04:27:55;;;;;;;;;;;;;;;16.98;39.46;101930.69;5018619;28;888;-53
2024/01/28 04:30:20;;;;;;;;;;;;;;;16.40;40.78;101930.69;5018987;28;1039;-56
2024/01/28 04:32:46;;;;;;;;;;;;;;;17.49;38.65;101925.19;5018604;28;1914;-57
2024/01/28 04:35:12;;;;;;;;;;;;;;;17.02;39.59;101936.53;5018606;28;1106;-53
2024/01/28 04:37:38;;;;;;;;;;;;;;;16.87;39.99;101926.91;5028855;28;1299;-56
2024/01/28 04:40:04;;;;;;;;;;;;;;;18.33;36.82;101926.06;5033650;28;1326;-57
2024/01/28 04:42:30;;;;;;;;;;;;;;;16.97;39.53;101933.69;5033687;28;1250;-58
2024/01/28 04:44:55;;;;;;;;;;;;;;;16.55;40.45;101943.03;5032421;28;1024;-58
2024/01/28 04:47:21;;;;;;;;;;;;;;;16.28;41.33;101948.28;5018293;28;1168;-59
2024/01/28 04:49:46;;;;;;;;;;;;;;;17.95;37.86;101947.06;5024547;28;1227;-56
2024/01/28 04:52:12;;;;;;;;;;;;;;;16.87;39.75;101942.53;5019238;28;1905;-58
2024/01/28 04:54:39;;;;;;;;;;;;;;;16.36;40.70;101945.97;5018677;28;1702;-56
2024/01/28 04:57:04;;;;;;;;;;;;;;;17.56;38.55;101955.28;5025788;28;1025;-56
2024/01/28 04:59:30;;;;;;;;;;;;;;;16.56;40.62;101950.19;5034978;28;1238;-57
2024/01/28 05:01:55;;;;;;;;;;;;;;;16.40;40.89;101960.06;5027397;28;1039;-56
2024/01/28 05:04:21;;;;;;;;;;;;;;;17.34;38.72;101958.78;5030282;28;1072;-56
2024/01/28 05:06:46;;;;;;;;;;;;;;;16.47;40.62;101968.16;5017108;28;1076;-57
2024/01/28 05:09:12;;;;;;;;;;;;;;;17.07;39.56;101964.94;5016889;28;1021;-56
2024/01/28 05:11:37;;;;;;;;;;;;;;;17.33;38.73;101965.34;5016560;28;1906;-56
2024/01/28 05:14:04;;;;;;;;;;;;;;;16.49;40.49;101971.47;5031214;28;1215;-58
2024/01/28 05:16:30;;;;;;;;;;;;;;;16.10;41.53;101957.50;5017740;28;858;-57
2024/01/28 05:18:56;;;;;;;;;;;;;;;17.00;39.83;101967.00;5017996;28;1076;-56
2024/01/28 05:21:22;;;;;;;;;;;;;;;16.57;40.47;101968.34;5018355;28;1028;-55
2024/01/28 05:23:51;;;;;;;;;;;;;;;16.21;41.16;101967.63;5017463;28;1092;-56
2024/01/28 05:26:17;;;;;;;;;;;;;;;15.89;41.88;101973.50;5025133;28;1160;-57
2024/01/28 05:28:42;;;;;;;;;;;;;;;15.74;42.02;101977.53;5023453;28;902;-58
2024/01/28 05:31:08;;;;;;;;;;;;;;;15.53;42.49;101980.88;5037797;28;1143;-58
2024/01/28 05:33:37;;;;;;;;;;;;;;;15.45;42.78;101982.03;5023878;28;1914;-56
2024/01/28 05:36:10;;;;;;;;;;;;;;;15.21;43.08;101984.75;5025464;28;1171;-56
2024/01/28 05:38:35;;;;;;;;;;;;;;;16.60;40.17;101990.66;5035056;28;1092;-56
2024/01/28 05:41:01;;;;;;;;;;;;;;;17.41;38.34;101995.19;5017374;28;853;-57
2024/01/28 05:43:26;;;;;;;;;;;;;;;16.29;40.67;101999.34;5017494;28;1071;-56
2024/01/28 05:45:52;;;;;;;;;;;;;;;15.81;41.87;101988.44;5017162;28;1057;-57
2024/01/28 05:48:17;;;;;;;;;;;;;;;15.50;42.72;101993.16;5030984;28;1164;-57
2024/01/28 05:50:43;;;;;;;;;;;;;;;15.62;42.58;102008.78;5017345;28;1211;-57
2024/01/28 05:53:08;;;;;;;;;;;;;;;17.15;39.03;102001.31;5019581;28;1918;-57
2024/01/28 05:55:34;;;;;;;;;;;;;;;16.98;38.94;102013.09;5016811;28;1135;-56
2024/01/28 05:57:59;;;;;;;;;;;;;;;16.16;41.09;102011.41;5017926;28;1179;-56
2024/01/28 06:00:25;;;;;;;;;;;;;;;15.72;42.20;102012.59;5017139;28;1128;-51
2024/01/28 06:02:51;;;;;;;;;;;;;;;15.53;42.32;102024.75;5017539;28;1044;-56
2024/01/28 06:05:16;;;;;;;;;;;;;;;16.51;40.53;102024.22;5016717;28;889;-54
2024/01/28 06:07:42;;;;;;;;;;;;;;;17.47;38.18;102022.78;5017606;28;1084;-51
2024/01/28 06:10:08;;;;;;;;;;;;;;;16.46;40.19;102032.38;5016623;28;1053;-50
2024/01/28 06:12:33;;;;;;;;;;;;;;;15.87;41.79;102025.03;5030069;28;1906;-57
2024/01/28 06:15:04;;;;;;;;;;;;;;;15.63;42.33;102035.13;5016084;28;1008;-47
2024/01/28 06:17:29;;;;;;;;;;;;;;;15.46;42.67;102038.56;5016487;28;997;-52
2024/01/28 06:19:55;;;;;;;;;;;;;;;17.02;39.19;102036.28;5016635;28;1027;-54
2024/01/28 06:22:20;;;;;;;;;;;;;;;17.24;38.46;102030.91;5016766;28;1051;-53
2024/01/28 06:24:46;;;;;;;;;;;;;;;16.20;40.82;102031.81;5023207;28;1265;-54
2024/01/28 06:27:12;;;;;;;;;;;;;;;15.74;42.16;102040.63;5023597;28;1095;-57
2024/01/28 06:29:37;;;;;;;;;;;;;;;15.49;42.50;102051.78;5031538;28;1079;-59
2024/01/28 06:32:03;;;;;;;;;;;;;;;16.51;40.61;102051.69;5016820;28;1909;-56
2024/01/28 06:34:29;;;;;;;;;;;;;;;17.56;38.33;102052.38;5036155;28;1230;-56
2024/01/28 06:36:54;;;;;;;;;;;;;;;16.67;40.08;102045.44;5022863;28;1191;-57
2024/01/28 06:39:20;;;;;;;;;;;;;;;16.01;41.50;102053.06;5016249;28;1451;-57
2024/01/28 06:41:45;;;;;;;;;;;;;;;15.67;42.01;102056.34;5016116;28;950;-58
2024/01/28 06:44:11;;;;;;;;;;;;;;;15.58;42.51;102060.50;5016356;28;1142;-50
2024/01/28 06:46:36;;;;;;;;;;;;;;;17.09;39.18;102064.44;5028651;28;1148;-56
2024/01/28 06:49:03;;;;;;;;;;;;;;;17.15;38.89;102050.78;5027780;28;1124;-58
2024/01/28 06:51:29;;;;;;;;;;;;;;;16.18;41.00;102047.69;5017616;28;1973;-56
2024/01/28 06:53:57;;;;;;;;;;;;;;;15.75;41.95;102049.66;5027642;28;1064;-57
2024/01/28 06:56:22;;;;;;;;;;;;;;;15.51;42.50;102059.78;5022223;28;1064;-57
2024/01/28 06:58:48;;;;;;;;;;;;;;;16.75;40.07;102050.56;5025460;28;1273;-57
2024/01/28 07:01:13;;;;;;;;;;;;;;;17.51;38.19;102054.19;5016018;28;1136;-58
2024/01/28 07:03:39;;;;;;;;;;;;;;;16.38;40.55;102053.66;5025818;28;1164;-57
2024/01/28 07:06:04;;;;;;;;;;;;;;;15.87;41.50;102057.94;5022485;28;1122;-57
2024/01/28 07:08:30;;;;;;;;;;;;;;;15.56;42.41;102062.66;5019727;28;1063;-56
2024/01/28 07:10:57;;;;;;;;;;;;;;;15.75;42.26;102049.66;5020213;28;1084;-57
2024/01/28 07:13:22;;;;;;;;;;;;;;;17.23;38.83;102053.16;5030049;28;1914;-57
2024/01/28 07:15:49;;;;;;;;;;;;;;;17.23;38.65;102058.66;5023093;28;1055;-57
2024/01/28 07:18:14;;;;;;;;;;;;;;;16.29;40.74;102063.31;5019982;28;996;-56
2024/01/28 07:20:40;;;;;;;;;;;;;;;15.83;41.88;102064.97;5020295;28;1035;-57
2024/01/28 07:23:06;;;;;;;;;;;;;;;15.57;42.17;102059.66;5029746;28;1036;-56
2024/01/28 07:25:31;;;;;;;;;;;;;;;16.45;40.57;102069.97;5023270;28;1083;-56
2024/01/28 07:27:57;;;;;;;;;;;;;;;17.44;38.38;102063.41;5022727;28;1071;-56
2024/01/28 07:30:22;;;;;;;;;;;;;;;16.37;40.27;102068.44;5026456;28;1141;-57
2024/01/28 07:32:48;;;;;;;;;;;;;;;15.87;41.51;102068.91;5029914;28;1905;-55
2024/01/28 07:35:15;;;;;;;;;;;;;;;15.59;42.26;102073.13;5019700;28;1207;-55
2024/01/28 07:37:41;;;;;;;;;;;;;;;17.01;39.28;102077.75;5019110;28;1043;-56
2024/01/28 07:40:07;;;;;;;;;;;;;;;17.18;39.00;102077.78;5019671;28;1114;-57
2024/01/28 07:42:32;;;;;;;;;;;;;;;16.24;40.95;102085.13;5019774;28;1489;-56
2024/01/28 07:44:58;;;;;;;;;;;;;;;15.82;41.65;102088.84;5022698;28;1092;-56
2024/01/28 07:47:23;;;;;;;;;;;;;;;15.59;42.40;102095.06;5029509;28;1149;-56
2024/01/28 07:49:49;;;;;;;;;;;;;;;17.01;39.45;102095.06;5022020;28;1227;-56
2024/01/28 07:52:14;;;;;;;;;;;;;;;17.21;38.69;102094.63;5028046;28;2012;-57
2024/01/28 07:54:40;;;;;;;;;;;;;;;16.22;40.89;102099.09;5019526;28;1172;-56
2024/01/28 07:57:06;;;;;;;;;;;;;;;15.85;41.67;102093.00;5029455;28;1204;-56
2024/01/28 07:59:31;;;;;;;;;;;;;;;15.49;42.53;102087.41;5022299;28;1027;-56
2024/01/28 08:01:57;;;;;;;;;;;;;;;16.27;41.16;102090.19;5029058;28;1137;-56
2024/01/28 08:04:23;;;;;;;;;;;;;;;17.49;38.34;102092.09;5021769;28;1142;-57
2024/01/28 08:06:49;;;;;;;;;;;;;;;16.82;39.37;102090.81;5019389;28;1186;-55
2024/01/28 08:09:15;;;;;;;;;;;;;;;16.16;41.12;102085.50;5031588;28;1060;-57
2024/01/28 08:11:41;;;;;;;;;;;;;;;15.84;41.70;102085.84;5019242;28;1911;-58
2024/01/28 08:14:06;;;;;;;;;;;;;;;15.60;42.35;102083.03;5018953;28;1068;-56
2024/01/28 08:16:32;;;;;;;;;;;;;;;17.04;39.22;102089.09;5028095;28;1309;-56
2024/01/28 08:18:57;;;;;;;;;;;;;;;17.54;38.13;102073.75;5021630;28;1219;-56
2024/01/28 08:21:23;;;;;;;;;;;;;;;16.44;40.33;102090.28;5028959;28;1143;-57
2024/01/28 08:23:48;;;;;;;;;;;;;;;15.99;41.43;102083.50;5034518;28;1306;-56
2024/01/28 08:26:15;;;;;;;;;;;;;;;15.69;42.13;102089.84;5019128;28;1044;-58
2024/01/28 08:28:41;;;;;;;;;;;;;;;15.64;42.50;102076.03;5018314;28;1143;-57
2024/01/28 08:31:06;;;;;;;;;;;;;;;17.15;39.31;102092.03;5018800;28;1160;-60
2024/01/28 08:33:32;;;;;;;;;;;;;;;17.64;37.89;102089.59;5023109;28;1979;-57
2024/01/28 08:35:57;;;;;;;;;;;;;;;16.45;40.42;102089.19;5027529;28;1159;-58
2024/01/28 08:38:23;;;;;;;;;;;;;;;16.07;41.46;102083.13;5018735;28;1064;-59
2024/01/28 08:40:48;;;;;;;;;;;;;;;15.77;42.15;102105.13;5018498;28;1167;-58
2024/01/28 08:43:14;;;;;;;;;;;;;;;15.61;42.53;102100.31;5018504;28;1160;-58
2024/01/28 08:45:39;;;;;;;;;;;;;;;16.34;40.97;102096.38;5018421;28;1052;-56
2024/01/28 08:48:05;;;;;;;;;;;;;;;17.50;38.64;102096.53;5018291;28;1167;-59
2024/01/28 08:50:31;;;;;;;;;;;;;;;16.86;39.60;102106.56;5029248;28;1155;-57
2024/01/28 08:52:56;;;;;;;;;;;;;;;16.21;41.00;102096.59;5020179;28;1918;-57
2024/01/28 08:55:22;;;;;;;;;;;;;;;15.82;41.78;102115.41;5018651;28;1301;-57
2024/01/28 08:57:47;;;;;;;;;;;;;;;15.60;42.33;102124.16;5031420;28;1528;-55
2024/01/28 09:00:13;;;;;;;;;;;;;;;16.35;40.95;102119.97;5018462;28;1235;-56
2024/01/28 09:02:39;;;;;;;;;;;;;;;17.51;38.56;102125.69;5020081;28;1040;-56
2024/01/28 09:05:06;;;;;;;;;;;;;;;16.58;40.37;102129.31;5028885;28;1214;-55
2024/01/28 09:07:31;;;;;;;;;;;;;;;16.02;41.40;102120.56;5020241;28;1108;-56
2024/01/28 09:09:57;;;;;;;;;;;;;;;15.67;42.17;102124.03;5028946;28;1167;-55
2024/01/28 09:12:24;;;;;;;;;;;;;;;15.68;42.55;102126.59;5017421;28;1963;-55
2024/01/28 09:14:49;;;;;;;;;;;;;;;17.17;39.03;102120.94;5017851;28;1430;-58
2024/01/28 09:17:15;;;;;;;;;;;;;;;17.76;37.90;102117.88;5022119;28;1032;-56
2024/01/28 09:19:40;;;;;;;;;;;;;;;16.56;40.39;102128.69;5021421;28;1024;-56
2024/01/28 09:22:06;;;;;;;;;;;;;;;16.04;41.54;102132.16;5027024;28;1059;-57
2024/01/28 09:24:32;;;;;;;;;;;;;;;15.80;42.19;102128.53;5017157;28;1055;-55
2024/01/28 09:26:58;;;;;;;;;;;;;;;15.53;42.74;102131.66;5033385;28;1139;-54
2024/01/28 09:29:25;;;;;;;;;;;;;;;17.08;39.32;102137.00;5026153;28;1380;-55
2024/01/28 09:31:51;;;;;;;;;;;;;;;17.20;38.85;102130.63;5025412;28;1909;-53
2024/01/28 09:34:17;;;;;;;;;;;;;;;16.23;40.88;102139.22;5026345;28;1118;-55
2024/01/28 09:36:43;;;;;;;;;;;;;;;15.88;41.74;102134.50;5024111;28;1125;-54
2024/01/28 09:39:10;;;;;;;;;;;;;;;15.56;42.51;102129.28;5017831;28;1360;-51
2024/01/28 09:41:37;;;;;;;;;;;;;;;16.83;39.96;102133.66;5017457;28;1119;-49
2024/01/28 09:44:03;;;;;;;;;;;;;;;17.70;38.12;102120.81;5017445;28;1140;-47
2024/01/28 09:46:30;;;;;;;;;;;;;;;16.52;40.38;102131.09;5017609;28;1130;-53
2024/01/28 09:48:56;;;;;;;;;;;;;;;16.02;41.54;102135.13;5024040;28;1187;-53
2024/01/28 09:51:22;;;;;;;;;;;;;;;15.69;42.31;102128.22;5025885;28;1353;-55
2024/01/28 09:53:48;;;;;;;;;;;;;;;15.71;42.29;102128.00;5019650;28;1984;-56
2024/01/28 09:56:15;;;;;;;;;;;;;;;17.23;39.20;102124.63;5033238;28;1008;-56
2024/01/28 09:58:42;;;;;;;;;;;;;;;17.31;38.64;102121.47;5025803;28;1028;-57
2024/01/28 10:01:08;;;;;;;;;;;;;;;16.28;41.04;102130.25;5030598;28;1084;-55
2024/01/28 10:03:33;;;;;;;;;;;;;;;15.95;41.55;102133.56;5025673;28;1184;-56
2024/01/28 10:05:59;;;;;;;;;;;;;;;15.64;42.30;102130.84;5026297;28;1167;-56
2024/01/28 10:08:25;;;;;;;;;;;;;;;16.07;41.48;102129.78;5026958;28;1059;-55
2024/01/28 10:10:52;;;;;;;;;;;;;;;17.40;38.68;102131.00;5019682;28;1131;-52
2024/01/28 10:13:18;;;;;;;;;;;;;;;17.16;38.86;102137.69;5025134;28;1910;-54
2024/01/28 10:15:52;;;;;;;;;;;;;;;16.31;40.62;102120.72;5019597;28;1522;-55
2024/01/28 10:18:18;;;;;;;;;;;;;;;15.88;41.92;102126.28;5016555;28;930;-54
2024/01/28 10:20:43;;;;;;;;;;;;;;;15.57;42.62;102135.56;5015145;28;1143;-54
2024/01/28 10:23:09;;;;;;;;;;;;;;;16.05;41.47;102131.09;5025960;28;1141;-56
2024/01/28 10:25:34;;;;;;;;;;;;;;;17.41;38.79;102127.16;5020420;28;1171;-56
2024/01/28 10:28:01;;;;;;;;;;;;;;;17.18;38.91;102135.50;5016525;28;1124;-56
2024/01/28 10:30:26;;;;;;;;;;;;;;;16.30;40.87;102128.13;5029043;28;1167;-56
2024/01/28 10:32:52;;;;;;;;;;;;;;;15.83;42.24;102133.56;5026882;28;1898;-56
2024/01/28 10:35:17;;;;;;;;;;;;;;;15.65;42.56;102128.94;5018208;28;1099;-55
2024/01/28 10:37:44;;;;;;;;;;;;;;;15.64;42.65;102144.56;5018615;28;1083;-55
2024/01/28 10:40:11;;;;;;;;;;;;;;;17.09;39.51;102124.06;5015396;28;1096;-55
2024/01/28 10:42:40;;;;;;;;;;;;;;;17.09;39.16;102124.06;5015820;28;908;-56
2024/01/28 10:45:12;;;;;;;;;;;;;;;16.29;41.05;102148.41;5016041;28;1143;-56
2024/01/28 10:47:41;;;;;;;;;;;;;;;15.82;41.90;102137.34;5016253;28;1163;-56
2024/01/28 10:50:10;;;;;;;;;;;;;;;15.57;42.29;102144.66;5034069;28;1503;-57
2024/01/28 10:52:38;;;;;;;;;;;;;;;17.10;39.38;102147.72;5024172;28;1902;-53
2024/01/28 10:55:04;;;;;;;;;;;;;;;17.45;38.64;102147.59;5015748;28;1092;-46
2024/01/28 10:57:30;;;;;;;;;;;;;;;16.40;40.87;102142.06;5029375;28;1084;-47
2024/01/28 10:59:56;;;;;;;;;;;;;;;15.98;41.53;102147.66;5016797;28;1172;-48
2024/01/28 11:02:22;;;;;;;;;;;;;;;15.71;42.43;102158.16;5029812;28;1108;-47
2024/01/28 11:04:48;;;;;;;;;;;;;;;15.94;41.77;102157.44;5015071;28;1189;-48
2024/01/28 11:07:19;;;;;;;;;;;;;;;17.33;38.73;102152.31;5015286;28;959;-47
2024/01/28 11:09:45;;;;;;;;;;;;;;;17.10;39.27;102145.81;5026855;28;1076;-50
2024/01/28 11:12:10;;;;;;;;;;;;;;;16.23;41.15;102143.88;5015840;28;1906;-50
2024/01/28 11:14:36;;;;;;;;;;;;;;;15.86;42.13;102150.34;5016051;28;1410;-48
2024/01/28 11:17:01;;;;;;;;;;;;;;;15.62;42.41;102148.59;5036134;28;1159;-48
2024/01/28 11:19:27;;;;;;;;;;;;;;;17.03;39.65;102147.88;5029530;28;1297;-45
2024/01/28 11:21:53;;;;;;;;;;;;;;;17.23;38.88;102152.09;5028292;28;1035;-49
2024/01/28 11:24:18;;;;;;;;;;;;;;;16.28;40.87;102154.94;5016167;28;1506;-48
2024/01/28 11:26:44;;;;;;;;;;;;;;;15.94;41.68;102159.34;5014255;28;1060;-49
2024/01/28 11:29:10;;;;;;;;;;;;;;;15.65;42.29;102153.63;5015017;28;1056;-50
2024/01/28 11:31:37;;;;;;;;;;;;;;;16.41;40.91;102152.00;5016001;28;1044;-51
2024/01/28 11:34:14;;;;;;;;;;;;;;;17.55;38.67;102155.19;5029737;28;1973;-49
2024/01/28 11:36:41;;;;;;;;;;;;;;;16.80;39.90;102156.13;5025503;28;1090;-50
2024/01/28 11:39:07;;;;;;;;;;;;;;;16.16;41.15;102154.09;5029203;28;1107;-44
2024/01/28 11:41:37;;;;;;;;;;;;;;;15.85;42.11;102156.09;5015728;28;1112;-49
2024/01/28 11:44:03;;;;;;;;;;;;;;;15.59;42.40;102154.56;5020467;28;1107;-52
2024/01/28 11:46:29;;;;;;;;;;;;;;;16.51;40.87;102147.78;5023913;28;1148;-48
2024/01/28 11:48:54;;;;;;;;;;;;;;;17.57;38.48;102144.81;5016078;28;1531;-48
2024/01/28 11:51:20;;;;;;;;;;;;;;;17.10;39.31;102147.72;5016469;28;1156;-51
2024/01/28 11:53:45;;;;;;;;;;;;;;;16.30;41.04;102154.72;5039301;28;1914;-49
2024/01/28 11:56:11;;;;;;;;;;;;;;;15.87;41.91;102145.72;5025414;28;1298;-48
2024/01/28 11:58:37;;;;;;;;;;;;;;;15.64;42.59;102154.69;5030309;28;1012;-51
2024/01/28 12:01:02;;;;;;;;;;;;;;;16.37;41.17;102149.97;5032121;28;1171;-49
2024/01/28 12:03:28;;;;;;;;;;;;;;;17.54;38.58;102153.53;5019314;28;1127;-52
2024/01/28 12:05:54;;;;;;;;;;;;;;;16.78;39.75;102159.13;5022098;28;980;-51
2024/01/28 12:08:26;;;;;;;;;;;;;;;16.13;41.27;102162.81;5018761;28;1118;-51
2024/01/28 12:10:56;;;;;;;;;;;;;;;15.73;42.31;102165.09;5030439;28;1056;-50
2024/01/28 12:13:21;;;;;;;;;;;;;;;15.45;42.71;102162.97;5019298;28;1906;-50
2024/01/28 12:15:47;;;;;;;;;;;;;;;16.87;39.77;102165.94;5019232;28;1106;-51
2024/01/28 12:18:12;;;;;;;;;;;;;;;17.65;38.09;102157.31;5027695;28;1092;-55
2024/01/28 12:20:38;;;;;;;;;;;;;;;16.48;40.50;102151.00;5027474;28;989;-50
2024/01/28 12:23:03;;;;;;;;;;;;;;;15.98;41.60;102164.13;5028586;28;1171;-51
2024/01/28 12:25:29;;;;;;;;;;;;;;;15.73;42.15;102156.84;5021735;28;1091;-53
2024/01/28 12:27:54;;;;;;;;;;;;;;;16.19;41.54;102165.47;5018414;28;1128;-49
2024/01/28 12:30:20;;;;;;;;;;;;;;;17.51;38.64;102164.19;5018636;28;1207;-50
2024/01/28 12:32:46;;;;;;;;;;;;;;;16.97;39.46;102169.97;5027203;28;1917;-51
2024/01/28 12:35:12;;;;;;;;;;;;;;;16.11;41.47;102165.81;5024739;28;1060;-53
2024/01/28 12:37:38;;;;;;;;;;;;;;;15.80;41.95;102184.22;5038246;28;1198;-52
2024/01/28 12:40:06;;;;;;;;;;;;;;;15.55;42.42;102181.59;5034550;28;1376;-51